sensor_id;sensor_type;location;lat;lon;timestamp;temperature;humidity
8402;DHT22;4238;48.404;9.498;2023-04-15T00:00:44;1.50;50.20
8402;DHT22;4238;48.404;9.498;2023-04-15T00:03:11;1.50;55.70
8402;DHT22;4238;48.404;9.498;2023-04-15T00:05:38;1.40;71.90
8402;DHT22;4238;48.404;9.498;2023-04-15T00:08:07;1.50;61.10
8402;DHT22;4238;48.404;9.498;2023-04-15T00:10:33;1.60;53.20
8402;DHT22;4238;48.404;9.498;2023-04-15T00:13:00;1.60;52.40
8402;DHT22;4238;48.404;9.498;2023-04-15T00:15:28;1.40;58.40
8402;DHT22;4238;48.404;9.498;2023-04-15T00:17:56;1.40;66.30
8402;DHT22;4238;48.404;9.498;2023-04-15T00:20:23;1.60;51.60
8402;DHT22;4238;48.404;9.498;2023-04-15T00:22:50;1.60;49.70
8402;DHT22;4238;48.404;9.498;2023-04-15T00:25:18;1.60;45.40
8402;DHT22;4238;48.404;9.498;2023-04-15T00:27:45;1.60;48.00
8402;DHT22;4238;48.404;9.498;2023-04-15T00:30:12;1.60;54.60
8402;DHT22;4238;48.404;9.498;2023-04-15T00:32:39;1.50;57.20
8402;DHT22;4238;48.404;9.498;2023-04-15T00:35:07;1.50;57.90
8402;DHT22;4238;48.404;9.498;2023-04-15T00:37:34;1.40;65.70
8402;DHT22;4238;48.404;9.498;2023-04-15T00:40:01;1.30;72.60
8402;DHT22;4238;48.404;9.498;2023-04-15T00:42:31;1.30;77.60
8402;DHT22;4238;48.404;9.498;2023-04-15T00:44:59;1.30;69.90
8402;DHT22;4238;48.404;9.498;2023-04-15T00:47:26;1.30;60.40
8402;DHT22;4238;48.404;9.498;2023-04-15T00:49:55;1.30;62.80
8402;DHT22;4238;48.404;9.498;2023-04-15T00:52:22;1.30;56.20
8402;DHT22;4238;48.404;9.498;2023-04-15T00:54:49;1.30;54.20
8402;DHT22;4238;48.404;9.498;2023-04-15T00:57:20;1.30;58.70
8402;DHT22;4238;48.404;9.498;2023-04-15T00:59:50;1.30;73.30
8402;DHT22;4238;48.404;9.498;2023-04-15T01:02:18;1.50;70.20
8402;DHT22;4238;48.404;9.498;2023-04-15T01:04:45;1.60;65.00
8402;DHT22;4238;48.404;9.498;2023-04-15T01:07:13;1.70;57.50
8402;DHT22;4238;48.404;9.498;2023-04-15T01:09:41;1.80;48.40
8402;DHT22;4238;48.404;9.498;2023-04-15T01:12:11;1.80;40.00
8402;DHT22;4238;48.404;9.498;2023-04-15T01:14:38;1.60;46.70
8402;DHT22;4238;48.404;9.498;2023-04-15T01:17:07;1.50;53.70
8402;DHT22;4238;48.404;9.498;2023-04-15T01:19:35;1.40;48.50
8402;DHT22;4238;48.404;9.498;2023-04-15T01:22:02;1.30;51.90
8402;DHT22;4238;48.404;9.498;2023-04-15T01:24:31;1.10;55.40
8402;DHT22;4238;48.404;9.498;2023-04-15T01:27:00;0.90;62.30
8402;DHT22;4238;48.404;9.498;2023-04-15T01:29:29;0.80;71.90
8402;DHT22;4238;48.404;9.498;2023-04-15T01:31:57;0.90;72.20
8402;DHT22;4238;48.404;9.498;2023-04-15T01:34:24;1.00;64.70
8402;DHT22;4238;48.404;9.498;2023-04-15T01:36:50;0.90;68.00
8402;DHT22;4238;48.404;9.498;2023-04-15T01:39:17;0.90;91.30
8402;DHT22;4238;48.404;9.498;2023-04-15T01:41:44;1.00;87.10
8402;DHT22;4238;48.404;9.498;2023-04-15T01:44:13;1.00;74.10
8402;DHT22;4238;48.404;9.498;2023-04-15T01:46:40;1.00;70.60
8402;DHT22;4238;48.404;9.498;2023-04-15T01:49:06;1.00;69.30
8402;DHT22;4238;48.404;9.498;2023-04-15T01:51:33;0.90;68.40
8402;DHT22;4238;48.404;9.498;2023-04-15T01:54:00;1.20;74.60
8402;DHT22;4238;48.404;9.498;2023-04-15T01:56:27;1.20;63.50
8402;DHT22;4238;48.404;9.498;2023-04-15T01:58:54;1.20;60.30
8402;DHT22;4238;48.404;9.498;2023-04-15T02:01:22;1.20;58.40
8402;DHT22;4238;48.404;9.498;2023-04-15T02:03:49;1.20;48.80
8402;DHT22;4238;48.404;9.498;2023-04-15T02:06:16;1.00;54.80
8402;DHT22;4238;48.404;9.498;2023-04-15T02:08:43;0.90;67.70
8402;DHT22;4238;48.404;9.498;2023-04-15T02:11:10;0.90;64.30
8402;DHT22;4238;48.404;9.498;2023-04-15T02:13:37;0.90;66.50
8402;DHT22;4238;48.404;9.498;2023-04-15T02:16:14;0.80;73.90
8402;DHT22;4238;48.404;9.498;2023-04-15T02:18:43;0.90;72.70
8402;DHT22;4238;48.404;9.498;2023-04-15T02:21:10;0.90;68.40
8402;DHT22;4238;48.404;9.498;2023-04-15T02:23:37;1.00;57.20
8402;DHT22;4238;48.404;9.498;2023-04-15T02:26:04;0.90;58.80
8402;DHT22;4238;48.404;9.498;2023-04-15T02:28:31;0.80;72.90
8402;DHT22;4238;48.404;9.498;2023-04-15T02:30:58;0.90;70.70
8402;DHT22;4238;48.404;9.498;2023-04-15T02:33:26;0.90;48.90
8402;DHT22;4238;48.404;9.498;2023-04-15T02:35:54;0.80;49.80
8402;DHT22;4238;48.404;9.498;2023-04-15T02:38:21;0.80;54.70
8402;DHT22;4238;48.404;9.498;2023-04-15T02:40:48;0.80;53.50
8402;DHT22;4238;48.404;9.498;2023-04-15T02:43:15;0.80;50.00
8402;DHT22;4238;48.404;9.498;2023-04-15T02:45:42;0.80;44.70
8402;DHT22;4238;48.404;9.498;2023-04-15T02:48:10;0.70;50.90
8402;DHT22;4238;48.404;9.498;2023-04-15T02:50:37;0.60;75.80
8402;DHT22;4238;48.404;9.498;2023-04-15T02:53:06;0.70;78.40
8402;DHT22;4238;48.404;9.498;2023-04-15T02:55:33;0.70;75.90
8402;DHT22;4238;48.404;9.498;2023-04-15T02:58:00;0.80;63.20
8402;DHT22;4238;48.404;9.498;2023-04-15T03:00:27;0.80;53.90
8402;DHT22;4238;48.404;9.498;2023-04-15T03:02:58;0.70;50.70
8402;DHT22;4238;48.404;9.498;2023-04-15T03:05:25;0.60;53.20
8402;DHT22;4238;48.404;9.498;2023-04-15T03:07:52;0.40;71.00
8402;DHT22;4238;48.404;9.498;2023-04-15T03:10:21;0.50;82.90
8402;DHT22;4238;48.404;9.498;2023-04-15T03:12:48;0.50;80.60
8402;DHT22;4238;48.404;9.498;2023-04-15T03:15:15;0.50;85.40
8402;DHT22;4238;48.404;9.498;2023-04-15T03:17:42;0.50;78.30
8402;DHT22;4238;48.404;9.498;2023-04-15T03:20:10;0.60;67.40
8402;DHT22;4238;48.404;9.498;2023-04-15T03:22:36;0.40;65.60
8402;DHT22;4238;48.404;9.498;2023-04-15T03:25:04;0.40;64.00
8402;DHT22;4238;48.404;9.498;2023-04-15T03:27:33;0.40;75.20
8402;DHT22;4238;48.404;9.498;2023-04-15T03:30:00;0.30;87.10
8402;DHT22;4238;48.404;9.498;2023-04-15T03:32:27;0.30;93.70
8402;DHT22;4238;48.404;9.498;2023-04-15T03:34:54;0.40;94.90
8402;DHT22;4238;48.404;9.498;2023-04-15T03:37:21;0.40;89.40
8402;DHT22;4238;48.404;9.498;2023-04-15T03:39:48;0.50;76.10
8402;DHT22;4238;48.404;9.498;2023-04-15T03:42:15;0.50;72.80
8402;DHT22;4238;48.404;9.498;2023-04-15T03:44:43;0.50;71.30
8402;DHT22;4238;48.404;9.498;2023-04-15T03:47:10;0.50;65.90
8402;DHT22;4238;48.404;9.498;2023-04-15T03:49:37;0.40;68.60
8402;DHT22;4238;48.404;9.498;2023-04-15T03:52:04;0.40;60.90
8402;DHT22;4238;48.404;9.498;2023-04-15T03:54:31;0.50;68.20
8402;DHT22;4238;48.404;9.498;2023-04-15T03:56:58;0.40;61.80
8402;DHT22;4238;48.404;9.498;2023-04-15T03:59:24;0.40;76.70
8402;DHT22;4238;48.404;9.498;2023-04-15T04:01:53;0.40;86.60
8402;DHT22;4238;48.404;9.498;2023-04-15T04:04:20;0.60;82.80
8402;DHT22;4238;48.404;9.498;2023-04-15T04:06:46;0.60;78.20
8402;DHT22;4238;48.404;9.498;2023-04-15T04:09:13;0.60;68.60
8402;DHT22;4238;48.404;9.498;2023-04-15T04:11:40;0.50;62.70
8402;DHT22;4238;48.404;9.498;2023-04-15T04:14:07;0.60;59.60
8402;DHT22;4238;48.404;9.498;2023-04-15T04:16:34;0.50;73.10
8402;DHT22;4238;48.404;9.498;2023-04-15T04:19:02;0.40;85.00
8402;DHT22;4238;48.404;9.498;2023-04-15T04:21:29;0.50;82.30
8402;DHT22;4238;48.404;9.498;2023-04-15T04:23:58;0.60;73.10
8402;DHT22;4238;48.404;9.498;2023-04-15T04:26:25;0.60;67.20
8402;DHT22;4238;48.404;9.498;2023-04-15T04:28:52;0.60;63.50
8402;DHT22;4238;48.404;9.498;2023-04-15T04:31:19;0.60;68.10
8402;DHT22;4238;48.404;9.498;2023-04-15T04:33:46;0.60;69.60
8402;DHT22;4238;48.404;9.498;2023-04-15T04:36:14;0.60;67.00
8402;DHT22;4238;48.404;9.498;2023-04-15T04:38:41;0.60;65.90
8402;DHT22;4238;48.404;9.498;2023-04-15T04:41:08;0.40;71.50
8402;DHT22;4238;48.404;9.498;2023-04-15T04:43:35;0.30;86.80
8402;DHT22;4238;48.404;9.498;2023-04-15T04:46:02;0.40;86.90
8402;DHT22;4238;48.404;9.498;2023-04-15T04:48:29;0.50;82.50
8402;DHT22;4238;48.404;9.498;2023-04-15T04:50:56;0.50;69.40
8402;DHT22;4238;48.404;9.498;2023-04-15T04:53:24;0.60;63.30
8402;DHT22;4238;48.404;9.498;2023-04-15T04:55:52;0.60;60.10
8402;DHT22;4238;48.404;9.498;2023-04-15T04:58:19;0.50;59.80
8402;DHT22;4238;48.404;9.498;2023-04-15T05:00:46;0.60;66.70
8402;DHT22;4238;48.404;9.498;2023-04-15T05:03:13;0.50;70.10
8402;DHT22;4238;48.404;9.498;2023-04-15T05:05:40;0.40;76.90
8402;DHT22;4238;48.404;9.498;2023-04-15T05:08:07;0.40;91.60
8402;DHT22;4238;48.404;9.498;2023-04-15T05:10:35;0.40;93.10
8402;DHT22;4238;48.404;9.498;2023-04-15T05:13:02;0.50;87.50
8402;DHT22;4238;48.404;9.498;2023-04-15T05:15:29;0.70;79.60
8402;DHT22;4238;48.404;9.498;2023-04-15T05:17:57;0.70;69.80
8402;DHT22;4238;48.404;9.498;2023-04-15T05:20:24;0.80;79.00
8402;DHT22;4238;48.404;9.498;2023-04-15T05:22:51;0.80;77.00
8402;DHT22;4238;48.404;9.498;2023-04-15T05:25:17;0.70;81.10
8402;DHT22;4238;48.404;9.498;2023-04-15T05:27:46;0.70;85.40
8402;DHT22;4238;48.404;9.498;2023-04-15T05:30:13;0.70;85.40
8402;DHT22;4238;48.404;9.498;2023-04-15T05:32:40;0.70;99.90
8402;DHT22;4238;48.404;9.498;2023-04-15T05:35:07;0.80;97.10
8402;DHT22;4238;48.404;9.498;2023-04-15T05:37:34;1.00;92.40
8402;DHT22;4238;48.404;9.498;2023-04-15T05:40:01;1.10;87.00
8402;DHT22;4238;48.404;9.498;2023-04-15T05:42:28;1.20;90.60
8402;DHT22;4238;48.404;9.498;2023-04-15T05:44:57;1.30;86.30
8402;DHT22;4238;48.404;9.498;2023-04-15T05:47:24;1.40;81.20
8402;DHT22;4238;48.404;9.498;2023-04-15T05:49:51;1.60;75.10
8402;DHT22;4238;48.404;9.498;2023-04-15T05:52:18;1.80;69.00
8402;DHT22;4238;48.404;9.498;2023-04-15T05:54:45;2.00;57.40
8402;DHT22;4238;48.404;9.498;2023-04-15T05:57:11;2.10;47.80
8402;DHT22;4238;48.404;9.498;2023-04-15T05:59:38;2.30;41.10
8402;DHT22;4238;48.404;9.498;2023-04-15T06:02:08;2.30;44.40
8402;DHT22;4238;48.404;9.498;2023-04-15T06:04:36;2.30;54.70
8402;DHT22;4238;48.404;9.498;2023-04-15T06:07:03;2.30;61.30
8402;DHT22;4238;48.404;9.498;2023-04-15T06:09:30;2.40;67.20
8402;DHT22;4238;48.404;9.498;2023-04-15T06:11:58;2.70;65.90
8402;DHT22;4238;48.404;9.498;2023-04-15T06:14:26;3.00;55.20
8402;DHT22;4238;48.404;9.498;2023-04-15T06:16:53;3.30;50.80
8402;DHT22;4238;48.404;9.498;2023-04-15T06:19:21;3.50;44.80
8402;DHT22;4238;48.404;9.498;2023-04-15T06:21:48;3.70;49.10
8402;DHT22;4238;48.404;9.498;2023-04-15T06:24:15;4.00;33.00
8402;DHT22;4238;48.404;9.498;2023-04-15T06:26:41;4.20;34.60
8402;DHT22;4238;48.404;9.498;2023-04-15T06:29:08;4.40;34.30
8402;DHT22;4238;48.404;9.498;2023-04-15T06:31:35;4.50;40.80
8402;DHT22;4238;48.404;9.498;2023-04-15T06:34:02;4.70;36.80
8402;DHT22;4238;48.404;9.498;2023-04-15T06:36:31;4.90;29.50
8402;DHT22;4238;48.404;9.498;2023-04-15T06:38:58;5.10;23.20
8402;DHT22;4238;48.404;9.498;2023-04-15T06:41:25;5.30;7.20
8402;DHT22;4238;48.404;9.498;2023-04-15T06:43:52;5.70;8.80
8402;DHT22;4238;48.404;9.498;2023-04-15T06:46:19;6.10;1.00
8402;DHT22;4238;48.404;9.498;2023-04-15T06:48:46;6.30;1.00
8402;DHT22;4238;48.404;9.498;2023-04-15T06:51:13;6.60;1.00
8402;DHT22;4238;48.404;9.498;2023-04-15T06:53:41;6.90;1.00
8402;DHT22;4238;48.404;9.498;2023-04-15T06:56:08;7.10;1.00
8402;DHT22;4238;48.404;9.498;2023-04-15T06:58:35;7.50;1.00
8402;DHT22;4238;48.404;9.498;2023-04-15T07:01:02;7.80;1.00
8402;DHT22;4238;48.404;9.498;2023-04-15T07:03:30;8.00;1.00
8402;DHT22;4238;48.404;9.498;2023-04-15T07:05:57;8.00;1.00
8402;DHT22;4238;48.404;9.498;2023-04-15T07:08:24;8.00;1.00
8402;DHT22;4238;48.404;9.498;2023-04-15T07:10:52;7.90;1.00
8402;DHT22;4238;48.404;9.498;2023-04-15T07:13:19;7.90;1.00
8402;DHT22;4238;48.404;9.498;2023-04-15T07:15:46;8.10;1.00
8402;DHT22;4238;48.404;9.498;2023-04-15T07:18:13;8.30;1.00
8402;DHT22;4238;48.404;9.498;2023-04-15T07:20:40;8.70;99.90
8402;DHT22;4238;48.404;9.498;2023-04-15T07:23:07;8.70;99.90
8402;DHT22;4238;48.404;9.498;2023-04-15T07:25:34;8.80;99.90
8402;DHT22;4238;48.404;9.498;2023-04-15T07:28:02;8.80;1.00
8402;DHT22;4238;48.404;9.498;2023-04-15T07:30:29;8.70;53.20
8402;DHT22;4238;48.404;9.498;2023-04-15T07:32:57;8.60;99.90
8402;DHT22;4238;48.404;9.498;2023-04-15T07:35:24;8.40;99.90
8402;DHT22;4238;48.404;9.498;2023-04-15T07:37:51;8.50;69.10
8402;DHT22;4238;48.404;9.498;2023-04-15T07:40:18;8.70;99.90
8402;DHT22;4238;48.404;9.498;2023-04-15T07:42:45;8.70;88.70
8402;DHT22;4238;48.404;9.498;2023-04-15T07:45:15;8.90;1.00
8402;DHT22;4238;48.404;9.498;2023-04-15T07:47:42;9.10;1.00
8402;DHT22;4238;48.404;9.498;2023-04-15T07:50:09;9.30;1.00
8402;DHT22;4238;48.404;9.498;2023-04-15T07:52:36;9.40;78.40
8402;DHT22;4238;48.404;9.498;2023-04-15T07:55:05;9.60;99.90
8402;DHT22;4238;48.404;9.498;2023-04-15T07:57:32;9.80;1.00
8402;DHT22;4238;48.404;9.498;2023-04-15T08:00:00;10.10;1.00
8402;DHT22;4238;48.404;9.498;2023-04-15T08:02:29;10.50;99.90
8402;DHT22;4238;48.404;9.498;2023-04-15T08:04:57;10.80;91.90
8402;DHT22;4238;48.404;9.498;2023-04-15T08:07:24;10.80;1.00
8402;DHT22;4238;48.404;9.498;2023-04-15T08:09:51;10.60;1.00
8402;DHT22;4238;48.404;9.498;2023-04-15T08:12:17;10.90;11.80
8402;DHT22;4238;48.404;9.498;2023-04-15T08:14:45;11.10;1.00
8402;DHT22;4238;48.404;9.498;2023-04-15T08:17:12;11.40;1.00
8402;DHT22;4238;48.404;9.498;2023-04-15T08:19:40;11.60;99.90
8402;DHT22;4238;48.404;9.498;2023-04-15T08:22:07;11.80;99.90
8402;DHT22;4238;48.404;9.498;2023-04-15T08:24:34;12.00;99.90
8402;DHT22;4238;48.404;9.498;2023-04-15T08:27:01;11.90;99.90
8402;DHT22;4238;48.404;9.498;2023-04-15T08:29:30;11.80;3.40
8402;DHT22;4238;48.404;9.498;2023-04-15T08:31:58;11.50;1.00
8402;DHT22;4238;48.404;9.498;2023-04-15T08:34:25;11.20;1.00
8402;DHT22;4238;48.404;9.498;2023-04-15T08:36:54;11.40;1.00
8402;DHT22;4238;48.404;9.498;2023-04-15T08:39:21;11.60;1.00
8402;DHT22;4238;48.404;9.498;2023-04-15T08:41:53;11.90;1.00
8402;DHT22;4238;48.404;9.498;2023-04-15T08:44:22;12.60;1.00
8402;DHT22;4238;48.404;9.498;2023-04-15T08:46:50;13.30;1.00
8402;DHT22;4238;48.404;9.498;2023-04-15T08:49:18;13.70;1.00
8402;DHT22;4238;48.404;9.498;2023-04-15T08:51:47;13.40;1.00
8402;DHT22;4238;48.404;9.498;2023-04-15T08:54:16;13.20;1.00
8402;DHT22;4238;48.404;9.498;2023-04-15T08:56:44;13.80;1.00
8402;DHT22;4238;48.404;9.498;2023-04-15T08:59:11;14.40;1.00
8402;DHT22;4238;48.404;9.498;2023-04-15T09:01:39;14.70;1.00
8402;DHT22;4238;48.404;9.498;2023-04-15T09:04:06;15.50;1.00
8402;DHT22;4238;48.404;9.498;2023-04-15T09:06:33;15.80;1.00
8402;DHT22;4238;48.404;9.498;2023-04-15T09:09:00;15.00;99.90
8402;DHT22;4238;48.404;9.498;2023-04-15T09:11:30;15.20;99.90
8402;DHT22;4238;48.404;9.498;2023-04-15T09:13:57;15.50;99.90
8402;DHT22;4238;48.404;9.498;2023-04-15T09:16:24;15.90;99.90
8402;DHT22;4238;48.404;9.498;2023-04-15T09:18:52;15.60;99.90
8402;DHT22;4238;48.404;9.498;2023-04-15T09:21:20;15.10;99.90
8402;DHT22;4238;48.404;9.498;2023-04-15T09:23:55;14.50;99.90
8402;DHT22;4238;48.404;9.498;2023-04-15T09:26:31;14.00;99.90
8402;DHT22;4238;48.404;9.498;2023-04-15T09:29:03;13.70;99.90
8402;DHT22;4238;48.404;9.498;2023-04-15T09:31:32;12.90;99.90
8402;DHT22;4238;48.404;9.498;2023-04-15T09:33:59;12.90;99.90
8402;DHT22;4238;48.404;9.498;2023-04-15T09:36:26;13.20;99.90
8402;DHT22;4238;48.404;9.498;2023-04-15T09:38:55;14.10;99.90
8402;DHT22;4238;48.404;9.498;2023-04-15T09:41:22;14.20;99.90
8402;DHT22;4238;48.404;9.498;2023-04-15T09:43:51;14.40;99.90
8402;DHT22;4238;48.404;9.498;2023-04-15T09:46:18;14.20;99.90
8402;DHT22;4238;48.404;9.498;2023-04-15T09:49:09;14.00;99.90
8402;DHT22;4238;48.404;9.498;2023-04-15T09:51:36;13.80;99.90
8402;DHT22;4238;48.404;9.498;2023-04-15T09:54:03;13.60;99.90
8402;DHT22;4238;48.404;9.498;2023-04-15T09:56:33;13.60;99.90
8402;DHT22;4238;48.404;9.498;2023-04-15T09:59:02;13.60;99.90
8402;DHT22;4238;48.404;9.498;2023-04-15T10:01:28;13.60;99.90
8402;DHT22;4238;48.404;9.498;2023-04-15T10:03:57;13.50;99.90
8402;DHT22;4238;48.404;9.498;2023-04-15T10:06:25;13.40;99.90
8402;DHT22;4238;48.404;9.498;2023-04-15T10:08:53;13.80;99.90
8402;DHT22;4238;48.404;9.498;2023-04-15T10:11:21;14.10;99.90
8402;DHT22;4238;48.404;9.498;2023-04-15T10:13:50;13.90;99.90
8402;DHT22;4238;48.404;9.498;2023-04-15T10:16:20;13.50;99.90
8402;DHT22;4238;48.404;9.498;2023-04-15T10:18:54;13.40;99.90
8402;DHT22;4238;48.404;9.498;2023-04-15T10:21:21;13.20;99.90
8402;DHT22;4238;48.404;9.498;2023-04-15T10:23:48;13.20;99.90
8402;DHT22;4238;48.404;9.498;2023-04-15T10:26:16;13.20;99.90
8402;DHT22;4238;48.404;9.498;2023-04-15T10:28:43;13.40;99.90
8402;DHT22;4238;48.404;9.498;2023-04-15T10:31:12;13.80;99.90
8402;DHT22;4238;48.404;9.498;2023-04-15T10:33:41;13.40;99.90
8402;DHT22;4238;48.404;9.498;2023-04-15T10:36:08;13.60;99.90
8402;DHT22;4238;48.404;9.498;2023-04-15T10:38:37;14.20;99.90
8402;DHT22;4238;48.404;9.498;2023-04-15T10:41:15;14.40;99.90
8402;DHT22;4238;48.404;9.498;2023-04-15T10:43:48;13.90;99.90
8402;DHT22;4238;48.404;9.498;2023-04-15T10:46:17;13.60;99.90
8402;DHT22;4238;48.404;9.498;2023-04-15T10:48:50;13.60;99.90
8402;DHT22;4238;48.404;9.498;2023-04-15T10:51:27;13.90;99.90
8402;DHT22;4238;48.404;9.498;2023-04-15T10:53:56;14.30;99.90
8402;DHT22;4238;48.404;9.498;2023-04-15T10:56:24;15.00;99.90
8402;DHT22;4238;48.404;9.498;2023-04-15T10:58:51;14.60;99.90
8402;DHT22;4238;48.404;9.498;2023-04-15T11:01:19;14.70;99.90
8402;DHT22;4238;48.404;9.498;2023-04-15T11:03:49;14.30;99.90
8402;DHT22;4238;48.404;9.498;2023-04-15T11:06:16;14.70;99.90
8402;DHT22;4238;48.404;9.498;2023-04-15T11:08:54;14.80;99.90
8402;DHT22;4238;48.404;9.498;2023-04-15T11:11:22;15.50;99.90
8402;DHT22;4238;48.404;9.498;2023-04-15T11:13:50;14.60;99.90
8402;DHT22;4238;48.404;9.498;2023-04-15T11:16:18;14.60;99.90
8402;DHT22;4238;48.404;9.498;2023-04-15T11:18:54;14.60;99.90
8402;DHT22;4238;48.404;9.498;2023-04-15T11:21:24;14.80;99.90
8402;DHT22;4238;48.404;9.498;2023-04-15T11:23:52;15.10;99.90
8402;DHT22;4238;48.404;9.498;2023-04-15T11:26:25;15.10;99.90
8402;DHT22;4238;48.404;9.498;2023-04-15T11:28:52;14.20;99.90
8402;DHT22;4238;48.404;9.498;2023-04-15T11:31:19;14.10;99.90
8402;DHT22;4238;48.404;9.498;2023-04-15T11:33:55;14.90;99.90
8402;DHT22;4238;48.404;9.498;2023-04-15T11:36:24;14.60;99.90
8402;DHT22;4238;48.404;9.498;2023-04-15T11:38:52;14.50;99.90
8402;DHT22;4238;48.404;9.498;2023-04-15T11:41:20;14.80;99.90
8402;DHT22;4238;48.404;9.498;2023-04-15T11:43:48;14.30;99.90
8402;DHT22;4238;48.404;9.498;2023-04-15T11:46:15;14.40;99.90
8402;DHT22;4238;48.404;9.498;2023-04-15T11:48:44;13.80;99.90
8402;DHT22;4238;48.404;9.498;2023-04-15T11:51:13;13.60;99.90
8402;DHT22;4238;48.404;9.498;2023-04-15T11:53:41;13.40;99.90
8402;DHT22;4238;48.404;9.498;2023-04-15T11:56:09;13.10;99.90
8402;DHT22;4238;48.404;9.498;2023-04-15T11:58:37;12.00;99.90
8402;DHT22;4238;48.404;9.498;2023-04-15T12:01:05;11.90;99.90
8402;DHT22;4238;48.404;9.498;2023-04-15T12:03:37;12.20;99.90
8402;DHT22;4238;48.404;9.498;2023-04-15T12:06:06;12.60;99.90
8402;DHT22;4238;48.404;9.498;2023-04-15T12:08:59;12.80;99.90
8402;DHT22;4238;48.404;9.498;2023-04-15T12:11:29;13.10;99.90
8402;DHT22;4238;48.404;9.498;2023-04-15T12:13:58;13.30;99.90
8402;DHT22;4238;48.404;9.498;2023-04-15T12:16:28;13.60;99.90
8402;DHT22;4238;48.404;9.498;2023-04-15T12:18:56;13.30;99.90
8402;DHT22;4238;48.404;9.498;2023-04-15T12:21:24;13.70;99.90
8402;DHT22;4238;48.404;9.498;2023-04-15T12:23:52;14.20;99.90
8402;DHT22;4238;48.404;9.498;2023-04-15T12:26:27;14.40;99.90
8402;DHT22;4238;48.404;9.498;2023-04-15T12:28:54;14.70;99.90
8402;DHT22;4238;48.404;9.498;2023-04-15T12:31:22;14.70;99.90
8402;DHT22;4238;48.404;9.498;2023-04-15T12:33:49;14.30;99.90
8402;DHT22;4238;48.404;9.498;2023-04-15T12:36:16;14.20;99.90
8402;DHT22;4238;48.404;9.498;2023-04-15T12:38:43;13.70;99.90
8402;DHT22;4238;48.404;9.498;2023-04-15T12:41:10;13.40;99.90
8402;DHT22;4238;48.404;9.498;2023-04-15T12:43:38;13.20;99.90
8402;DHT22;4238;48.404;9.498;2023-04-15T12:46:05;12.90;99.90
8402;DHT22;4238;48.404;9.498;2023-04-15T12:48:33;12.60;99.90
8402;DHT22;4238;48.404;9.498;2023-04-15T12:50:59;13.00;99.90
8402;DHT22;4238;48.404;9.498;2023-04-15T12:53:26;13.30;99.90
8402;DHT22;4238;48.404;9.498;2023-04-15T12:55:53;13.40;99.90
8402;DHT22;4238;48.404;9.498;2023-04-15T12:58:20;13.80;99.90
8402;DHT22;4238;48.404;9.498;2023-04-15T13:00:49;13.80;99.90
8402;DHT22;4238;48.404;9.498;2023-04-15T13:03:16;14.20;99.90
8402;DHT22;4238;48.404;9.498;2023-04-15T13:05:43;14.60;99.90
8402;DHT22;4238;48.404;9.498;2023-04-15T13:08:10;13.80;99.90
8402;DHT22;4238;48.404;9.498;2023-04-15T13:10:37;13.30;99.90
8402;DHT22;4238;48.404;9.498;2023-04-15T13:13:04;13.20;99.90
8402;DHT22;4238;48.404;9.498;2023-04-15T13:15:31;13.00;99.90
8402;DHT22;4238;48.404;9.498;2023-04-15T13:18:00;12.60;99.90
8402;DHT22;4238;48.404;9.498;2023-04-15T13:20:27;12.40;99.90
8402;DHT22;4238;48.404;9.498;2023-04-15T13:22:54;11.70;99.90
8402;DHT22;4238;48.404;9.498;2023-04-15T13:25:21;10.70;1.00
8402;DHT22;4238;48.404;9.498;2023-04-15T13:27:48;10.10;1.00
8402;DHT22;4238;48.404;9.498;2023-04-15T13:30:15;9.90;1.00
8402;DHT22;4238;48.404;9.498;2023-04-15T13:32:43;9.80;99.90
8402;DHT22;4238;48.404;9.498;2023-04-15T13:35:11;9.60;99.90
8402;DHT22;4238;48.404;9.498;2023-04-15T13:37:39;9.60;1.00
8402;DHT22;4238;48.404;9.498;2023-04-15T13:40:07;9.80;52.20
8402;DHT22;4238;48.404;9.498;2023-04-15T13:42:34;10.10;1.00
8402;DHT22;4238;48.404;9.498;2023-04-15T13:45:01;10.10;1.00
8402;DHT22;4238;48.404;9.498;2023-04-15T13:47:27;10.00;99.90
8402;DHT22;4238;48.404;9.498;2023-04-15T13:49:55;9.90;99.90
8402;DHT22;4238;48.404;9.498;2023-04-15T13:52:23;10.00;99.90
8402;DHT22;4238;48.404;9.498;2023-04-15T13:54:50;10.20;1.00
8402;DHT22;4238;48.404;9.498;2023-04-15T13:57:17;9.60;1.00
8402;DHT22;4238;48.404;9.498;2023-04-15T13:59:44;9.30;1.00
8402;DHT22;4238;48.404;9.498;2023-04-15T14:02:11;8.50;1.00
8402;DHT22;4238;48.404;9.498;2023-04-15T14:04:39;8.50;1.00
8402;DHT22;4238;48.404;9.498;2023-04-15T14:07:06;8.40;1.00
8402;DHT22;4238;48.404;9.498;2023-04-15T14:09:35;8.20;1.00
8402;DHT22;4238;48.404;9.498;2023-04-15T14:12:02;8.20;7.10
8402;DHT22;4238;48.404;9.498;2023-04-15T14:14:30;8.20;21.00
8402;DHT22;4238;48.404;9.498;2023-04-15T14:16:57;8.40;26.60
8402;DHT22;4238;48.404;9.498;2023-04-15T14:19:24;8.40;1.00
8402;DHT22;4238;48.404;9.498;2023-04-15T14:21:51;8.60;1.00
8402;DHT22;4238;48.404;9.498;2023-04-15T14:24:17;8.60;19.90
8402;DHT22;4238;48.404;9.498;2023-04-15T14:26:46;8.70;1.00
8402;DHT22;4238;48.404;9.498;2023-04-15T14:29:13;8.80;1.00
8402;DHT22;4238;48.404;9.498;2023-04-15T14:31:40;8.50;1.00
8402;DHT22;4238;48.404;9.498;2023-04-15T14:34:07;8.60;1.00
8402;DHT22;4238;48.404;9.498;2023-04-15T14:36:34;8.80;1.00
8402;DHT22;4238;48.404;9.498;2023-04-15T14:39:00;8.80;1.00
8402;DHT22;4238;48.404;9.498;2023-04-15T14:41:28;8.50;99.90
8402;DHT22;4238;48.404;9.498;2023-04-15T14:43:56;8.80;1.00
8402;DHT22;4238;48.404;9.498;2023-04-15T14:46:24;9.10;99.90
8402;DHT22;4238;48.404;9.498;2023-04-15T14:48:51;8.90;99.90
8402;DHT22;4238;48.404;9.498;2023-04-15T14:51:18;9.00;1.00
8402;DHT22;4238;48.404;9.498;2023-04-15T14:53:45;9.00;1.00
8402;DHT22;4238;48.404;9.498;2023-04-15T14:56:12;8.90;99.90
8402;DHT22;4238;48.404;9.498;2023-04-15T14:58:39;8.90;1.00
8402;DHT22;4238;48.404;9.498;2023-04-15T15:01:07;8.70;1.00
8402;DHT22;4238;48.404;9.498;2023-04-15T15:03:34;8.80;1.00
8402;DHT22;4238;48.404;9.498;2023-04-15T15:06:01;8.60;1.00
8402;DHT22;4238;48.404;9.498;2023-04-15T15:08:28;8.80;22.00
8402;DHT22;4238;48.404;9.498;2023-04-15T15:10:55;9.00;99.90
8402;DHT22;4238;48.404;9.498;2023-04-15T15:13:22;9.20;81.90
8402;DHT22;4238;48.404;9.498;2023-04-15T15:15:49;9.20;99.90
8402;DHT22;4238;48.404;9.498;2023-04-15T15:18:18;9.10;1.00
8402;DHT22;4238;48.404;9.498;2023-04-15T15:20:45;9.30;1.00
8402;DHT22;4238;48.404;9.498;2023-04-15T15:23:12;8.90;1.00
8402;DHT22;4238;48.404;9.498;2023-04-15T15:25:39;9.10;1.00
8402;DHT22;4238;48.404;9.498;2023-04-15T15:28:06;9.20;1.00
8402;DHT22;4238;48.404;9.498;2023-04-15T15:30:33;9.20;1.00
8402;DHT22;4238;48.404;9.498;2023-04-15T15:32:59;9.30;1.00
8402;DHT22;4238;48.404;9.498;2023-04-15T15:35:28;9.40;1.00
8402;DHT22;4238;48.404;9.498;2023-04-15T15:37:55;9.40;99.90
8402;DHT22;4238;48.404;9.498;2023-04-15T15:40:22;9.50;46.50
8402;DHT22;4238;48.404;9.498;2023-04-15T15:42:49;9.50;99.90
8402;DHT22;4238;48.404;9.498;2023-04-15T15:45:16;9.50;99.90
8402;DHT22;4238;48.404;9.498;2023-04-15T15:47:43;9.50;99.90
8402;DHT22;4238;48.404;9.498;2023-04-15T15:50:12;9.40;99.90
8402;DHT22;4238;48.404;9.498;2023-04-15T15:52:40;9.40;99.90
8402;DHT22;4238;48.404;9.498;2023-04-15T15:55:07;9.20;98.50
8402;DHT22;4238;48.404;9.498;2023-04-15T15:57:34;9.10;99.90
8402;DHT22;4238;48.404;9.498;2023-04-15T16:00:02;9.20;99.90
8402;DHT22;4238;48.404;9.498;2023-04-15T16:02:29;8.80;1.00
8402;DHT22;4238;48.404;9.498;2023-04-15T16:04:57;8.60;1.00
8402;DHT22;4238;48.404;9.498;2023-04-15T16:07:24;8.50;99.90
8402;DHT22;4238;48.404;9.498;2023-04-15T16:09:52;8.60;99.90
8402;DHT22;4238;48.404;9.498;2023-04-15T16:12:19;8.60;99.90
8402;DHT22;4238;48.404;9.498;2023-04-15T16:14:46;8.50;99.90
8402;DHT22;4238;48.404;9.498;2023-04-15T16:17:13;8.30;1.00